Time;durP1;ratioP1;P1;durP2;ratioP2;P2;SDS_P1;SDS_P2;PMS_P1;PMS_P2;Temp;Humidity;BMP_temperature;BMP_pressure;BME280_temperature;BME280_humidity;BME280_pressure;Samples;Min_cycle;Max_cycle;Signal;HPM_P1;HPM_P2
2023/06/30 00:02:17;;;;;;;12.63;11.52;;;;;;;;;;5090652;28;20429;-65
2023/06/30 00:04:44;;;;;;;12.70;11.60;;;;;;;;;;5091951;28;20418;-65
2023/06/30 00:07:11;;;;;;;10.60;9.60;;;;;;;;;;5107742;28;20809;-64
2023/06/30 00:09:38;;;;;;;9.05;8.32;;;;;;;;;;5119646;27;20406;-65
2023/06/30 00:12:06;;;;;;;8.70;8.00;;;;;;;;;;5091843;28;20958;-64
2023/06/30 00:14:33;;;;;;;9.17;8.47;;;;;;;;;;5088590;28;20422;-65
2023/06/30 00:17:01;;;;;;;9.77;8.98;;;;;;;;;;5095442;28;20430;-67
2023/06/30 00:19:29;;;;;;;9.90;9.10;;;;;;;;;;5088119;28;20426;-67
2023/06/30 00:21:56;;;;;;;10.77;9.90;;;;;;;;;;5088403;28;20426;-67
2023/06/30 00:24:23;;;;;;;10.70;9.70;;;;;;;;;;5089787;28;20469;-67
2023/06/30 00:26:50;;;;;;;9.30;8.50;;;;;;;;;;5088382;28;20768;-67
2023/06/30 00:29:17;;;;;;;7.72;7.13;;;;;;;;;;5094836;28;20602;-68
2023/06/30 00:31:44;;;;;;;8.02;7.22;;;;;;;;;;5097273;28;20418;-67
2023/06/30 00:34:13;;;;;;;8.30;7.50;;;;;;;;;;5096835;28;20444;-68
2023/06/30 00:36:40;;;;;;;8.35;7.55;;;;;;;;;;5089953;22;20851;-75
2023/06/30 00:39:07;;;;;;;8.82;8.02;;;;;;;;;;4980633;28;20949;-75
2023/06/30 00:41:34;;;;;;;7.30;6.70;;;;;;;;;;4976466;28;20917;-74
2023/06/30 00:44:01;;;;;;;5.55;5.13;;;;;;;;;;4981656;28;20443;-75
2023/06/30 00:46:29;;;;;;;5.60;4.80;;;;;;;;;;5019632;28;20520;-76
2023/06/30 00:48:56;;;;;;;4.40;4.00;;;;;;;;;;4993161;28;20442;-74
2023/06/30 00:51:25;;;;;;;4.10;3.60;;;;;;;;;;4986176;28;20442;-74
2023/06/30 00:53:52;;;;;;;4.47;4.07;;;;;;;;;;5054575;28;20443;-74
2023/06/30 00:56:19;;;;;;;5.80;5.20;;;;;;;;;;5020266;28;20438;-76
2023/06/30 00:58:46;;;;;;;5.88;5.38;;;;;;;;;;5021645;28;20432;-74
2023/06/30 01:01:17;;;;;;;6.85;6.25;;;;;;;;;;5051644;28;20438;-74
2023/06/30 01:03:47;;;;;;;9.80;9.00;;;;;;;;;;4989922;28;20943;-74
2023/06/30 01:06:17;;;;;;;9.93;9.13;;;;;;;;;;5051943;28;20418;-75
2023/06/30 01:08:48;;;;;;;11.80;10.80;;;;;;;;;;4996900;28;20466;-75
2023/06/30 01:11:15;;;;;;;10.70;9.80;;;;;;;;;;5007039;28;20442;-74
2023/06/30 01:13:42;;;;;;;12.57;11.48;;;;;;;;;;5015259;28;20435;-74
2023/06/30 01:16:10;;;;;;;12.60;11.50;;;;;;;;;;5076108;28;20446;-74
2023/06/30 01:18:41;;;;;;;11.90;10.90;;;;;;;;;;5006670;28;20434;-75
2023/06/30 01:21:08;;;;;;;12.30;11.20;;;;;;;;;;5017450;28;20414;-74
2023/06/30 01:23:36;;;;;;;10.60;9.70;;;;;;;;;;5031543;28;20410;-74
2023/06/30 01:26:06;;;;;;;9.75;8.85;;;;;;;;;;5073727;28;20425;-74
2023/06/30 01:28:34;;;;;;;7.47;6.78;;;;;;;;;;5029682;28;20430;-74
2023/06/30 01:31:05;;;;;;;8.63;7.72;;;;;;;;;;5051404;28;20450;-75
2023/06/30 01:33:32;;;;;;;8.90;8.15;;;;;;;;;;5025590;28;20829;-74
2023/06/30 01:35:59;;;;;;;9.45;8.65;;;;;;;;;;5019898;28;20899;-76
2023/06/30 01:38:27;;;;;;;10.25;9.30;;;;;;;;;;5008016;28;20597;-75
2023/06/30 01:40:54;;;;;;;10.00;9.20;;;;;;;;;;5056774;28;20836;-74
2023/06/30 01:43:22;;;;;;;11.70;10.70;;;;;;;;;;4979910;28;20519;-74
2023/06/30 01:45:50;;;;;;;12.55;11.45;;;;;;;;;;5072685;28;20439;-74
2023/06/30 01:48:17;;;;;;;11.85;10.85;;;;;;;;;;4988845;28;20454;-75
2023/06/30 01:50:45;;;;;;;11.68;10.60;;;;;;;;;;5031888;28;20795;-74
2023/06/30 01:53:12;;;;;;;9.50;8.70;;;;;;;;;;4988910;28;20438;-76
2023/06/30 01:55:40;;;;;;;9.00;8.10;;;;;;;;;;5023067;28;20444;-74
2023/06/30 01:58:07;;;;;;;7.45;6.75;;;;;;;;;;5018328;28;20438;-74
2023/06/30 02:00:35;;;;;;;8.18;7.15;;;;;;;;;;5030276;28;20423;-74
2023/06/30 02:03:02;;;;;;;7.80;7.10;;;;;;;;;;5058218;28;20410;-75
2023/06/30 02:05:29;;;;;;;6.72;6.13;;;;;;;;;;4987878;28;20446;-76
2023/06/30 02:07:56;;;;;;;6.93;5.97;;;;;;;;;;4987045;28;20429;-75
2023/06/30 02:10:25;;;;;;;5.55;4.80;;;;;;;;;;5065067;28;20426;-75
2023/06/30 02:12:52;;;;;;;5.82;4.70;;;;;;;;;;4989882;28;20434;-75
2023/06/30 02:15:19;;;;;;;5.18;4.68;;;;;;;;;;5051167;28;20418;-75
2023/06/30 02:17:47;;;;;;;4.57;4.13;;;;;;;;;;5006049;28;20951;-75
2023/06/30 02:20:14;;;;;;;4.85;4.35;;;;;;;;;;5047017;28;20920;-74
2023/06/30 02:22:42;;;;;;;5.15;4.65;;;;;;;;;;4988581;28;20438;-74
2023/06/30 02:25:09;;;;;;;4.22;3.83;;;;;;;;;;5045819;28;20426;-74
2023/06/30 02:27:36;;;;;;;5.85;4.75;;;;;;;;;;5012764;28;20924;-74
2023/06/30 02:30:05;;;;;;;5.83;5.00;;;;;;;;;;5034601;28;20414;-76
2023/06/30 02:32:32;;;;;;;5.03;4.63;;;;;;;;;;5001294;28;20437;-74
2023/06/30 02:35:01;;;;;;;5.90;5.30;;;;;;;;;;5011414;28;20449;-74
2023/06/30 02:37:28;;;;;;;6.07;4.50;;;;;;;;;;4988497;28;20426;-75
2023/06/30 02:39:55;;;;;;;6.45;4.78;;;;;;;;;;5007141;28;20434;-75
2023/06/30 02:42:22;;;;;;;7.13;5.20;;;;;;;;;;5041408;28;20475;-75
2023/06/30 02:44:49;;;;;;;6.60;5.50;;;;;;;;;;5046144;28;20830;-75
2023/06/30 02:47:16;;;;;;;6.00;5.50;;;;;;;;;;5024629;28;21082;-75
2023/06/30 02:49:43;;;;;;;6.83;6.13;;;;;;;;;;4987794;28;20426;-74
2023/06/30 02:52:11;;;;;;;8.50;7.57;;;;;;;;;;4986962;28;20434;-75
2023/06/30 02:54:38;;;;;;;9.23;8.25;;;;;;;;;;4986428;28;20437;-74
2023/06/30 02:57:06;;;;;;;11.25;10.20;;;;;;;;;;5015481;28;20438;-75
2023/06/30 02:59:33;;;;;;;10.70;9.70;;;;;;;;;;5031931;28;20947;-75
2023/06/30 03:02:00;;;;;;;10.65;9.70;;;;;;;;;;5021917;28;20545;-76
2023/06/30 03:04:27;;;;;;;9.43;7.90;;;;;;;;;;4992564;28;20573;-76
2023/06/30 03:06:54;;;;;;;9.80;8.30;;;;;;;;;;4976488;28;20444;-76
2023/06/30 03:09:22;;;;;;;8.50;7.70;;;;;;;;;;4988057;28;20430;-75
2023/06/30 03:11:50;;;;;;;9.23;8.30;;;;;;;;;;5021187;28;20413;-75
2023/06/30 03:14:17;;;;;;;8.18;7.38;;;;;;;;;;5030919;28;20421;-76
2023/06/30 03:16:44;;;;;;;9.40;8.50;;;;;;;;;;5029827;28;20426;-73
2023/06/30 03:19:11;;;;;;;8.52;7.72;;;;;;;;;;4989642;28;20445;-74
2023/06/30 03:21:38;;;;;;;9.55;8.55;;;;;;;;;;5048717;28;20441;-74
2023/06/30 03:24:05;;;;;;;9.68;8.68;;;;;;;;;;4985921;28;20430;-75
2023/06/30 03:26:34;;;;;;;9.02;8.13;;;;;;;;;;4985613;28;20442;-75
2023/06/30 03:29:03;;;;;;;10.30;9.20;;;;;;;;;;5012054;28;20774;-75
2023/06/30 03:31:30;;;;;;;9.70;8.80;;;;;;;;;;5001143;28;20445;-75
2023/06/30 03:33:58;;;;;;;11.43;8.98;;;;;;;;;;4998452;28;20431;-75
2023/06/30 03:36:25;;;;;;;10.10;9.20;;;;;;;;;;4991457;28;20504;-76
2023/06/30 03:38:52;;;;;;;10.05;9.13;;;;;;;;;;5024959;28;20439;-76
2023/06/30 03:41:19;;;;;;;10.20;9.10;;;;;;;;;;5035986;28;20425;-76
2023/06/30 03:43:48;;;;;;;10.95;9.20;;;;;;;;;;5026079;28;20462;-76
2023/06/30 03:46:15;;;;;;;11.23;10.23;;;;;;;;;;5026146;28;20426;-75
2023/06/30 03:48:43;;;;;;;10.70;9.45;;;;;;;;;;5024665;28;20461;-75
2023/06/30 03:51:10;;;;;;;10.30;9.20;;;;;;;;;;4986543;28;20491;-74
2023/06/30 03:53:37;;;;;;;10.75;9.75;;;;;;;;;;4986899;28;20422;-75
2023/06/30 03:56:04;;;;;;;11.15;10.05;;;;;;;;;;4989414;28;20446;-75
2023/06/30 03:58:32;;;;;;;10.40;9.40;;;;;;;;;;5016833;28;20445;-75
2023/06/30 04:01:00;;;;;;;10.55;9.45;;;;;;;;;;5021575;28;20454;-75
2023/06/30 04:03:27;;;;;;;11.25;10.13;;;;;;;;;;5055555;28;20431;-75
2023/06/30 04:05:54;;;;;;;13.63;9.00;;;;;;;;;;4988893;28;20427;-74
2023/06/30 04:08:21;;;;;;;11.70;9.80;;;;;;;;;;5012670;28;20402;-74
2023/06/30 04:10:49;;;;;;;10.63;8.40;;;;;;;;;;5034641;28;20421;-75
2023/06/30 04:13:16;;;;;;;10.13;9.13;;;;;;;;;;5041274;28;20512;-76
2023/06/30 04:15:43;;;;;;;10.93;9.83;;;;;;;;;;5031361;28;20508;-75
2023/06/30 04:18:11;;;;;;;9.93;8.82;;;;;;;;;;5005055;28;20446;-74
2023/06/30 04:20:38;;;;;;;11.63;9.48;;;;;;;;;;5042290;28;20435;-75
2023/06/30 04:23:05;;;;;;;12.63;9.52;;;;;;;;;;5054485;28;20835;-76
2023/06/30 04:25:32;;;;;;;11.20;9.20;;;;;;;;;;4986660;28;20780;-76
2023/06/30 04:27:59;;;;;;;11.55;10.35;;;;;;;;;;5010034;28;20449;-76
2023/06/30 04:30:26;;;;;;;13.20;11.50;;;;;;;;;;5047451;28;20440;-75
2023/06/30 04:32:53;;;;;;;12.57;10.95;;;;;;;;;;5057341;28;20449;-75
2023/06/30 04:35:24;;;;;;;13.23;11.00;;;;;;;;;;5027726;28;20555;-77
2023/06/30 04:37:52;;;;;;;11.17;9.23;;;;;;;;;;5030075;28;20420;-74
2023/06/30 04:40:19;;;;;;;12.02;10.82;;;;;;;;;;5023887;28;20464;-74
2023/06/30 04:42:46;;;;;;;10.45;9.45;;;;;;;;;;5003500;28;20445;-75
2023/06/30 04:45:13;;;;;;;10.90;9.53;;;;;;;;;;5085398;28;20421;-76
2023/06/30 04:47:40;;;;;;;9.57;8.68;;;;;;;;;;4996306;28;20438;-76
2023/06/30 04:50:07;;;;;;;10.50;9.40;;;;;;;;;;4989748;28;20434;-75
2023/06/30 04:52:36;;;;;;;10.07;8.82;;;;;;;;;;5018027;28;20445;-76
2023/06/30 04:55:03;;;;;;;10.70;9.43;;;;;;;;;;5046450;28;20422;-76
2023/06/30 04:57:30;;;;;;;10.30;9.20;;;;;;;;;;5051572;28;20471;-75
2023/06/30 04:59:57;;;;;;;10.38;9.45;;;;;;;;;;5031435;28;20548;-75
2023/06/30 05:02:24;;;;;;;11.13;8.98;;;;;;;;;;5026273;28;20479;-76
2023/06/30 05:04:51;;;;;;;12.20;9.67;;;;;;;;;;4997465;28;20438;-75
2023/06/30 05:07:18;;;;;;;11.80;10.50;;;;;;;;;;5040666;28;20421;-74
2023/06/30 05:09:47;;;;;;;12.95;11.15;;;;;;;;;;5058371;28;20466;-76
2023/06/30 05:12:14;;;;;;;11.77;9.30;;;;;;;;;;5033601;28;20907;-74
2023/06/30 05:14:41;;;;;;;11.77;9.50;;;;;;;;;;5028472;28;20929;-75
2023/06/30 05:17:08;;;;;;;10.65;9.15;;;;;;;;;;4999641;28;20436;-76
2023/06/30 05:19:36;;;;;;;11.00;9.30;;;;;;;;;;4997693;28;20490;-76
2023/06/30 05:22:03;;;;;;;18.02;10.35;;;;;;;;;;5062695;28;20499;-76
2023/06/30 05:24:30;;;;;;;11.60;10.00;;;;;;;;;;5006038;28;20440;-76
2023/06/30 05:26:58;;;;;;;13.50;9.27;;;;;;;;;;5024141;28;20440;-76
2023/06/30 05:29:25;;;;;;;10.90;9.90;;;;;;;;;;5032462;28;20454;-77
2023/06/30 05:31:52;;;;;;;11.45;9.00;;;;;;;;;;5013022;28;21359;-65
2023/06/30 05:34:19;;;;;;;10.65;9.50;;;;;;;;;;5055147;28;20422;-65
2023/06/30 05:36:47;;;;;;;11.13;10.13;;;;;;;;;;5052887;28;20434;-65
2023/06/30 05:39:14;;;;;;;9.70;8.45;;;;;;;;;;5037701;28;20426;-66
2023/06/30 05:41:41;;;;;;;10.60;8.80;;;;;;;;;;4988032;28;20450;-64
2023/06/30 05:44:09;;;;;;;12.35;8.75;;;;;;;;;;5049159;28;20440;-63
2023/06/30 05:46:37;;;;;;;11.40;8.80;;;;;;;;;;5055108;28;20445;-65
2023/06/30 05:49:05;;;;;;;8.88;8.05;;;;;;;;;;5013456;28;20445;-66
2023/06/30 05:51:33;;;;;;;8.70;7.80;;;;;;;;;;4988551;28;20479;-64
2023/06/30 05:54:00;;;;;;;8.75;7.10;;;;;;;;;;5012267;28;20980;-65
2023/06/30 05:56:27;;;;;;;10.00;7.65;;;;;;;;;;4993401;28;20438;-76
2023/06/30 05:58:54;;;;;;;9.57;7.85;;;;;;;;;;5023889;28;20426;-77
2023/06/30 06:01:22;;;;;;;8.70;7.20;;;;;;;;;;5030836;28;20426;-77
2023/06/30 06:03:49;;;;;;;10.15;7.20;;;;;;;;;;4991112;28;20427;-78
2023/06/30 06:06:17;;;;;;;9.32;7.03;;;;;;;;;;4989009;28;20438;-75
2023/06/30 06:08:46;;;;;;;8.32;7.10;;;;;;;;;;4995251;28;20446;-77
2023/06/30 06:11:13;;;;;;;8.00;6.50;;;;;;;;;;4982591;28;20462;-78
2023/06/30 06:13:40;;;;;;;9.57;6.68;;;;;;;;;;5011783;28;20443;-75
2023/06/30 06:16:08;;;;;;;8.20;5.80;;;;;;;;;;5016249;28;20445;-76
2023/06/30 06:18:36;;;;;;;12.18;6.80;;;;;;;;;;5005431;28;20438;-76
2023/06/30 06:21:04;;;;;;;9.00;5.63;;;;;;;;;;5069658;28;20427;-78
2023/06/30 06:23:31;;;;;;;8.40;6.13;;;;;;;;;;5002428;28;20434;-77
2023/06/30 06:25:58;;;;;;;6.30;5.18;;;;;;;;;;5054157;28;20437;-76
2023/06/30 06:28:26;;;;;;;6.80;5.43;;;;;;;;;;5040128;28;20439;-77
2023/06/30 06:30:53;;;;;;;8.30;6.10;;;;;;;;;;4993102;28;20434;-78
2023/06/30 06:33:20;;;;;;;8.38;6.40;;;;;;;;;;4997344;28;20430;-75
2023/06/30 06:35:50;;;;;;;9.65;5.93;;;;;;;;;;5000153;28;20438;-76
2023/06/30 06:38:17;;;;;;;6.85;6.15;;;;;;;;;;5065746;22;20447;-66
2023/06/30 06:40:44;;;;;;;9.35;6.45;;;;;;;;;;5065875;28;21022;-66
2023/06/30 06:43:11;;;;;;;6.88;5.85;;;;;;;;;;5064423;28;20431;-66
2023/06/30 06:45:38;;;;;;;9.50;6.10;;;;;;;;;;5068318;28;20427;-66
2023/06/30 06:48:19;;;;;;;10.48;6.80;;;;;;;;;;5069636;28;20791;-66
2023/06/30 06:50:46;;;;;;;9.40;6.95;;;;;;;;;;5068151;28;20435;-66
2023/06/30 06:53:17;;;;;;;7.57;6.03;;;;;;;;;;5068435;28;20423;-67
2023/06/30 06:55:44;;;;;;;8.27;5.60;;;;;;;;;;5066450;28;20842;-66
2023/06/30 06:58:12;;;;;;;7.30;6.07;;;;;;;;;;5073920;28;20435;-66
2023/06/30 07:00:39;;;;;;;8.35;6.40;;;;;;;;;;5067644;28;20460;-66
2023/06/30 07:03:06;;;;;;;8.90;5.80;;;;;;;;;;5067728;28;20427;-66
2023/06/30 07:05:33;;;;;;;9.02;6.13;;;;;;;;;;5068391;28;20431;-67
2023/06/30 07:08:00;;;;;;;7.00;6.30;;;;;;;;;;5066204;28;20806;-66
2023/06/30 07:10:29;;;;;;;10.00;7.32;;;;;;;;;;5066505;28;20434;-67
2023/06/30 07:12:56;;;;;;;16.48;14.73;;;;;;;;;;5062873;28;20594;-67
2023/06/30 07:15:24;;;;;;;12.00;10.57;;;;;;;;;;5068376;28;20503;-67
2023/06/30 07:17:51;;;;;;;9.88;8.30;;;;;;;;;;5062081;28;20450;-67
2023/06/30 07:20:18;;;;;;;28.95;26.05;;;;;;;;;;5070865;28;20411;-67
2023/06/30 07:22:45;;;;;;;14.18;12.65;;;;;;;;;;5064994;28;20456;-67
2023/06/30 07:25:12;;;;;;;14.53;13.20;;;;;;;;;;5067935;28;20435;-67
2023/06/30 07:27:40;;;;;;;11.80;10.55;;;;;;;;;;5063498;28;20431;-68
2023/06/30 07:30:08;;;;;;;9.50;8.05;;;;;;;;;;5061631;28;20437;-67
2023/06/30 07:32:35;;;;;;;9.95;8.05;;;;;;;;;;5065597;28;20443;-67
2023/06/30 07:35:03;;;;;;;8.23;6.38;;;;;;;;;;5066297;28;20457;-67
2023/06/30 07:37:30;;;;;;;9.98;7.32;;;;;;;;;;5066946;28;20459;-68
2023/06/30 07:39:57;;;;;;;8.23;6.10;;;;;;;;;;5064833;28;20443;-69
2023/06/30 07:42:24;;;;;;;7.35;6.63;;;;;;;;;;5065164;28;20425;-68
2023/06/30 07:44:52;;;;;;;6.07;5.28;;;;;;;;;;5062966;28;20922;-68
2023/06/30 07:47:19;;;;;;;8.23;4.88;;;;;;;;;;5067834;28;20431;-68
2023/06/30 07:49:46;;;;;;;7.75;5.18;;;;;;;;;;5063213;28;20438;-67
2023/06/30 07:52:13;;;;;;;5.95;5.22;;;;;;;;;;5073307;28;20500;-67
2023/06/30 07:54:42;;;;;;;5.90;4.53;;;;;;;;;;5059134;28;20421;-67
2023/06/30 07:57:09;;;;;;;5.70;4.50;;;;;;;;;;5066445;28;20435;-67
2023/06/30 07:59:36;;;;;;;6.55;4.93;;;;;;;;;;5063682;28;20435;-67
2023/06/30 08:02:06;;;;;;;7.90;5.10;;;;;;;;;;5066774;28;20439;-67
2023/06/30 08:04:35;;;;;;;7.47;5.15;;;;;;;;;;5070557;28;20454;-68
2023/06/30 08:07:02;;;;;;;6.78;4.45;;;;;;;;;;5057645;28;20843;-68
2023/06/30 08:09:29;;;;;;;7.00;5.10;;;;;;;;;;5080715;28;20446;-67
2023/06/30 08:11:57;;;;;;;6.75;4.60;;;;;;;;;;5065549;28;20431;-66
2023/06/30 08:14:24;;;;;;;5.70;4.57;;;;;;;;;;5068866;28;20931;-66
2023/06/30 08:16:51;;;;;;;5.75;3.85;;;;;;;;;;5065270;28;20428;-66
2023/06/30 08:19:19;;;;;;;7.82;4.30;;;;;;;;;;5066868;28;20415;-68
2023/06/30 08:21:46;;;;;;;6.70;5.00;;;;;;;;;;5064175;28;20657;-68
2023/06/30 08:24:13;;;;;;;5.50;3.30;;;;;;;;;;5055924;28;20427;-68
2023/06/30 08:26:40;;;;;;;9.85;5.28;;;;;;;;;;5063170;28;20434;-67
2023/06/30 08:29:07;;;;;;;4.90;3.95;;;;;;;;;;5055740;28;20421;-66
2023/06/30 08:31:35;;;;;;;4.82;3.20;;;;;;;;;;5064657;28;20444;-66
2023/06/30 08:34:02;;;;;;;6.45;3.85;;;;;;;;;;5062876;28;20622;-66
2023/06/30 08:36:30;;;;;;;3.20;2.40;;;;;;;;;;5067621;28;20434;-66
2023/06/30 08:38:57;;;;;;;4.47;3.00;;;;;;;;;;5067170;28;20443;-66
2023/06/30 08:41:24;;;;;;;4.60;3.00;;;;;;;;;;5065384;28;20431;-66
2023/06/30 08:43:52;;;;;;;4.50;2.40;;;;;;;;;;5065121;28;20602;-66
2023/06/30 08:46:22;;;;;;;4.50;2.10;;;;;;;;;;5058742;28;20439;-67
2023/06/30 08:48:49;;;;;;;2.47;1.50;;;;;;;;;;5065490;28;20572;-67
2023/06/30 08:51:17;;;;;;;3.45;1.90;;;;;;;;;;5071039;28;20411;-67
2023/06/30 08:53:46;;;;;;;4.00;1.90;;;;;;;;;;5065932;28;20780;-68
2023/06/30 08:56:14;;;;;;;2.50;1.70;;;;;;;;;;5056248;28;20429;-67
2023/06/30 08:58:41;;;;;;;4.70;1.92;;;;;;;;;;5062106;28;20438;-66
2023/06/30 09:01:09;;;;;;;3.40;2.20;;;;;;;;;;5063511;28;20607;-66
2023/06/30 09:03:37;;;;;;;4.25;1.92;;;;;;;;;;5057043;28;20448;-67
2023/06/30 09:06:04;;;;;;;4.28;1.90;;;;;;;;;;5066175;28;20423;-66
2023/06/30 09:08:35;;;;;;;3.13;2.10;;;;;;;;;;5074040;28;20414;-68
2023/06/30 09:11:07;;;;;;;4.43;2.42;;;;;;;;;;5065742;28;20856;-67
2023/06/30 09:13:35;;;;;;;3.35;1.73;;;;;;;;;;5055759;28;20423;-68
2023/06/30 09:16:06;;;;;;;2.75;1.90;;;;;;;;;;5065379;28;20460;-65
2023/06/30 09:18:33;;;;;;;2.73;1.73;;;;;;;;;;5071266;28;20808;-65
2023/06/30 09:21:00;;;;;;;3.55;1.70;;;;;;;;;;5071095;28;20755;-66
2023/06/30 09:23:28;;;;;;;3.03;2.00;;;;;;;;;;5063960;28;20442;-67
2023/06/30 09:25:55;;;;;;;3.80;1.80;;;;;;;;;;5066414;28;20443;-66
2023/06/30 09:28:23;;;;;;;2.90;1.30;;;;;;;;;;5071488;28;20419;-66
2023/06/30 09:30:50;;;;;;;2.53;1.70;;;;;;;;;;5070644;28;20438;-66
2023/06/30 09:33:20;;;;;;;3.00;1.33;;;;;;;;;;5071429;28;20422;-67
2023/06/30 09:35:48;;;;;;;4.30;1.60;;;;;;;;;;5084917;28;20455;-67
2023/06/30 09:38:15;;;;;;;2.63;1.40;;;;;;;;;;5081707;28;20502;-67
2023/06/30 09:40:43;;;;;;;3.92;1.23;;;;;;;;;;5073162;28;20426;-67
2023/06/30 09:43:16;;;;;;;3.20;1.50;;;;;;;;;;5075371;28;20987;-67
2023/06/30 09:45:46;;;;;;;3.03;1.60;;;;;;;;;;5066922;28;20913;-65
2023/06/30 09:48:13;;;;;;;1.90;1.30;;;;;;;;;;5067284;28;20441;-66
2023/06/30 09:50:42;;;;;;;2.47;1.00;;;;;;;;;;5072824;28;20939;-66
2023/06/30 09:53:09;;;;;;;2.10;1.30;;;;;;;;;;5069458;28;20539;-66
2023/06/30 09:55:47;;;;;;;3.78;1.40;;;;;;;;;;5070002;28;20438;-65
2023/06/30 09:58:15;;;;;;;2.53;1.48;;;;;;;;;;5063340;28;20795;-67
2023/06/30 10:00:42;;;;;;;3.30;1.30;;;;;;;;;;5070524;28;20808;-67
2023/06/30 10:03:11;;;;;;;3.05;1.60;;;;;;;;;;5079195;28;20427;-67
2023/06/30 10:05:38;;;;;;;2.05;1.30;;;;;;;;;;5090774;28;20448;-68
2023/06/30 10:08:05;;;;;;;2.53;1.48;;;;;;;;;;5068950;28;20779;-68
2023/06/30 10:10:33;;;;;;;4.22;1.30;;;;;;;;;;5060870;28;20443;-67
2023/06/30 10:13:00;;;;;;;2.50;1.40;;;;;;;;;;5072145;28;20426;-66
2023/06/30 10:15:27;;;;;;;2.00;1.20;;;;;;;;;;5079966;28;20887;-67
2023/06/30 10:17:55;;;;;;;3.25;1.40;;;;;;;;;;5069387;28;20640;-67
2023/06/30 10:20:24;;;;;;;3.47;1.00;;;;;;;;;;5067050;28;20930;-67
2023/06/30 10:22:51;;;;;;;3.00;1.10;;;;;;;;;;5065436;28;20435;-66
2023/06/30 10:25:20;;;;;;;2.30;1.02;;;;;;;;;;5067973;28;20619;-66
2023/06/30 10:27:48;;;;;;;2.90;1.30;;;;;;;;;;5065306;28;20479;-67
2023/06/30 10:30:15;;;;;;;2.72;1.30;;;;;;;;;;5063075;28;20434;-66
2023/06/30 10:32:42;;;;;;;2.78;1.10;;;;;;;;;;5070058;28;21049;-67
2023/06/30 10:35:13;;;;;;;2.28;1.10;;;;;;;;;;5072608;28;20507;-66
2023/06/30 10:37:41;;;;;;;2.03;1.10;;;;;;;;;;5083050;28;20431;-67
2023/06/30 10:40:09;;;;;;;2.67;0.90;;;;;;;;;;5068504;28;20427;-67
2023/06/30 10:42:39;;;;;;;3.05;0.98;;;;;;;;;;5071856;28;20419;-67
2023/06/30 10:45:06;;;;;;;2.40;1.15;;;;;;;;;;5069223;28;20802;-67
2023/06/30 10:47:39;;;;;;;2.53;0.93;;;;;;;;;;5071891;28;20416;-67
2023/06/30 10:50:12;;;;;;;2.00;1.40;;;;;;;;;;5071588;28;20439;-66
2023/06/30 10:52:39;;;;;;;2.85;1.50;;;;;;;;;;5068039;28;20438;-67
2023/06/30 10:55:08;;;;;;;1.63;1.00;;;;;;;;;;5070967;28;20427;-66
2023/06/30 10:57:36;;;;;;;1.80;0.90;;;;;;;;;;5062263;28;20890;-67
2023/06/30 11:00:05;;;;;;;2.75;1.10;;;;;;;;;;5070949;28;20550;-67
2023/06/30 11:02:33;;;;;;;2.47;1.10;;;;;;;;;;5067536;28;20812;-67
2023/06/30 11:05:01;;;;;;;2.55;1.20;;;;;;;;;;5065988;28;20437;-67
2023/06/30 11:07:29;;;;;;;2.05;1.25;;;;;;;;;;5066677;28;20457;-67
2023/06/30 11:10:00;;;;;;;4.00;1.20;;;;;;;;;;5055718;28;20456;-67
2023/06/30 11:12:29;;;;;;;1.95;1.05;;;;;;;;;;5065705;28;20439;-67
2023/06/30 11:14:57;;;;;;;1.67;0.90;;;;;;;;;;5075504;28;20410;-67
2023/06/30 11:17:24;;;;;;;2.00;1.00;;;;;;;;;;5067257;28;20434;-68
2023/06/30 11:19:59;;;;;;;3.50;1.10;;;;;;;;;;5075062;28;20441;-67
2023/06/30 11:22:26;;;;;;;3.60;1.30;;;;;;;;;;5075067;28;20521;-67
2023/06/30 11:24:55;;;;;;;2.58;1.10;;;;;;;;;;5070569;28;20435;-67
2023/06/30 11:27:22;;;;;;;2.90;1.20;;;;;;;;;;5062685;28;20427;-67
2023/06/30 11:29:51;;;;;;;2.20;1.00;;;;;;;;;;5061824;28;20431;-68
2023/06/30 11:32:18;;;;;;;2.33;1.00;;;;;;;;;;5067022;28;20925;-67
2023/06/30 11:34:46;;;;;;;2.78;1.00;;;;;;;;;;5069095;28;20578;-67
2023/06/30 11:37:13;;;;;;;2.00;1.10;;;;;;;;;;5063639;28;20517;-76
2023/06/30 11:39:40;;;;;;;1.75;0.90;;;;;;;;;;5064783;28;20428;-74
2023/06/30 11:42:07;;;;;;;2.38;1.20;;;;;;;;;;5070539;28;20415;-72
2023/06/30 11:44:37;;;;;;;1.98;1.08;;;;;;;;;;5060229;28;20416;-72
2023/06/30 11:47:06;;;;;;;1.30;1.00;;;;;;;;;;5065806;28;20428;-72
2023/06/30 11:49:36;;;;;;;2.90;1.73;;;;;;;;;;5070986;28;20416;-72
2023/06/30 11:52:04;;;;;;;1.90;1.20;;;;;;;;;;5077927;28;20432;-72
2023/06/30 11:54:31;;;;;;;1.38;0.85;;;;;;;;;;5073429;28;20427;-71
2023/06/30 11:56:58;;;;;;;1.50;1.00;;;;;;;;;;5068373;28;20808;-72
2023/06/30 11:59:26;;;;;;;1.38;0.80;;;;;;;;;;5072870;28;20434;-72
2023/06/30 12:01:53;;;;;;;1.70;1.00;;;;;;;;;;5073933;28;20918;-72
2023/06/30 12:04:33;;;;;;;1.50;1.00;;;;;;;;;;5081109;28;20765;-72
2023/06/30 12:07:02;;;;;;;2.10;0.90;;;;;;;;;;5057737;28;20443;-69
2023/06/30 12:09:29;;;;;;;2.35;1.20;;;;;;;;;;5065889;28;20440;-70
2023/06/30 12:11:57;;;;;;;2.10;0.98;;;;;;;;;;5067624;28;20424;-69
2023/06/30 12:14:26;;;;;;;2.60;1.05;;;;;;;;;;5071808;28;20432;-69
2023/06/30 12:16:53;;;;;;;2.30;1.05;;;;;;;;;;5076696;28;20927;-69
2023/06/30 12:19:24;;;;;;;2.33;1.00;;;;;;;;;;5067232;28;20463;-69
2023/06/30 12:21:53;;;;;;;1.92;1.10;;;;;;;;;;5067911;28;20446;-69
2023/06/30 12:24:20;;;;;;;1.75;1.20;;;;;;;;;;5082504;28;20429;-69
2023/06/30 12:26:48;;;;;;;2.00;1.10;;;;;;;;;;5063267;28;21014;-68
2023/06/30 12:29:17;;;;;;;2.47;1.05;;;;;;;;;;5055222;28;20495;-70
2023/06/30 12:31:45;;;;;;;2.30;1.30;;;;;;;;;;5076991;28;20482;-68
2023/06/30 12:34:12;;;;;;;3.22;1.40;;;;;;;;;;5059487;28;20416;-68
2023/06/30 12:36:40;;;;;;;2.50;1.10;;;;;;;;;;5057057;28;20576;-68
2023/06/30 12:39:08;;;;;;;2.50;0.93;;;;;;;;;;5091721;22;20469;-72
2023/06/30 12:41:35;;;;;;;2.53;1.05;;;;;;;;;;5080186;28;20430;-72
2023/06/30 12:44:03;;;;;;;2.25;0.90;;;;;;;;;;5083016;28;20441;-73
2023/06/30 12:46:30;;;;;;;1.10;0.90;;;;;;;;;;5081509;28;20433;-73
2023/06/30 12:48:57;;;;;;;2.08;1.00;;;;;;;;;;5081183;28;20468;-71
2023/06/30 12:51:24;;;;;;;2.67;1.10;;;;;;;;;;5097731;28;20961;-73
2023/06/30 12:53:51;;;;;;;1.50;0.90;;;;;;;;;;5088938;28;20949;-71
2023/06/30 12:56:20;;;;;;;2.20;0.90;;;;;;;;;;5085969;28;20883;-71
2023/06/30 12:58:47;;;;;;;1.50;0.85;;;;;;;;;;5091927;28;20441;-71
2023/06/30 13:01:14;;;;;;;1.88;1.00;;;;;;;;;;5086263;28;20486;-72
2023/06/30 13:03:41;;;;;;;1.40;0.90;;;;;;;;;;5077378;28;20429;-72
2023/06/30 13:06:08;;;;;;;1.10;0.80;;;;;;;;;;5096086;28;20413;-71
2023/06/30 13:08:36;;;;;;;1.33;0.80;;;;;;;;;;5084686;28;20447;-71
2023/06/30 13:11:05;;;;;;;1.40;0.80;;;;;;;;;;5084875;28;20461;-71
2023/06/30 13:13:33;;;;;;;2.60;1.20;;;;;;;;;;5086496;28;20418;-73
2023/06/30 13:16:00;;;;;;;2.28;0.90;;;;;;;;;;5086325;28;20418;-73
2023/06/30 13:18:27;;;;;;;1.50;1.00;;;;;;;;;;5084948;28;20444;-73
2023/06/30 13:20:55;;;;;;;1.50;0.90;;;;;;;;;;5082173;28;20483;-73
2023/06/30 13:23:22;;;;;;;1.33;0.90;;;;;;;;;;5085890;28;20484;-73
2023/06/30 13:25:49;;;;;;;1.30;1.00;;;;;;;;;;5081195;28;20441;-72
2023/06/30 13:28:16;;;;;;;1.70;1.00;;;;;;;;;;5085080;28;20426;-71
2023/06/30 13:30:45;;;;;;;1.50;1.17;;;;;;;;;;5081616;28;20767;-71
2023/06/30 13:33:12;;;;;;;2.08;1.17;;;;;;;;;;5080735;28;20412;-71
2023/06/30 13:35:39;;;;;;;1.90;0.83;;;;;;;;;;5085142;28;20434;-73
2023/06/30 13:38:06;;;;;;;2.40;1.10;;;;;;;;;;5089792;28;20433;-71
2023/06/30 13:40:33;;;;;;;2.83;1.40;;;;;;;;;;5083229;28;20426;-71
2023/06/30 13:43:00;;;;;;;2.50;1.20;;;;;;;;;;5085376;28;20409;-73
2023/06/30 13:45:27;;;;;;;1.60;1.30;;;;;;;;;;5085642;28;20885;-72
2023/06/30 13:47:56;;;;;;;1.67;1.30;;;;;;;;;;5084753;28;20461;-73
2023/06/30 13:50:23;;;;;;;2.40;1.20;;;;;;;;;;5090200;28;20830;-73
2023/06/30 13:52:50;;;;;;;3.00;1.40;;;;;;;;;;5094929;28;20494;-73
2023/06/30 13:55:17;;;;;;;2.00;1.20;;;;;;;;;;5084856;28;20441;-72
2023/06/30 13:57:45;;;;;;;3.17;1.20;;;;;;;;;;5085160;28;20540;-73
2023/06/30 14:00:12;;;;;;;3.75;1.40;;;;;;;;;;5084759;28;20414;-73
2023/06/30 14:02:39;;;;;;;2.07;1.30;;;;;;;;;;5084271;28;20765;-73
2023/06/30 14:05:08;;;;;;;2.13;1.40;;;;;;;;;;5081524;28;20445;-73
2023/06/30 14:07:35;;;;;;;2.38;1.08;;;;;;;;;;5081738;28;20434;-72
2023/06/30 14:10:03;;;;;;;2.47;1.15;;;;;;;;;;5086259;28;20438;-73
2023/06/30 14:12:30;;;;;;;2.47;1.20;;;;;;;;;;5085179;28;20466;-73
2023/06/30 14:14:57;;;;;;;2.60;1.10;;;;;;;;;;5089628;28;20433;-73
2023/06/30 14:17:24;;;;;;;3.20;1.60;;;;;;;;;;5094856;28;20447;-73
2023/06/30 14:19:51;;;;;;;2.38;1.42;;;;;;;;;;5075924;28;20581;-73
2023/06/30 14:22:20;;;;;;;3.10;1.60;;;;;;;;;;5084827;28;20429;-73
2023/06/30 14:24:47;;;;;;;3.50;2.10;;;;;;;;;;5069419;28;20476;-73
2023/06/30 14:27:14;;;;;;;2.13;1.67;;;;;;;;;;5072641;28;20427;-73
2023/06/30 14:29:42;;;;;;;2.00;1.50;;;;;;;;;;5084244;28;20424;-72
2023/06/30 14:32:09;;;;;;;2.13;1.40;;;;;;;;;;5094858;28;20737;-72
2023/06/30 14:34:36;;;;;;;2.70;1.60;;;;;;;;;;5093334;28;20420;-72
2023/06/30 14:37:04;;;;;;;2.90;1.70;;;;;;;;;;5091624;28;20410;-72
2023/06/30 14:39:32;;;;;;;2.80;1.45;;;;;;;;;;5087854;28;20426;-72
2023/06/30 14:41:59;;;;;;;1.95;1.42;;;;;;;;;;5084643;28;20417;-72